createdAt,value
2022-10-24T00:01:30.830Z,15.20
2022-10-24T00:03:59.413Z,13.90
2022-10-24T00:06:27.553Z,14.70
2022-10-24T00:08:55.408Z,15.10
2022-10-24T00:11:26.837Z,14.80
2022-10-24T00:13:56.897Z,14.30
2022-10-24T00:16:24.810Z,13.70
2022-10-24T00:18:52.651Z,13.60
2022-10-24T00:21:20.791Z,14.80
2022-10-24T00:23:48.674Z,14.70
2022-10-24T00:26:16.782Z,13.90
2022-10-24T00:28:45.995Z,14.20
2022-10-24T00:31:17.034Z,13.50
2022-10-24T00:33:45.437Z,15.00
2022-10-24T00:36:14.239Z,13.50
2022-10-24T00:38:42.141Z,15.00
2022-10-24T00:41:14.975Z,14.30
2022-10-24T00:43:42.989Z,14.80
2022-10-24T00:46:12.527Z,14.30
2022-10-24T00:48:42.878Z,13.60
2022-10-24T00:51:17.816Z,13.60
2022-10-24T00:53:48.663Z,13.60
2022-10-24T00:56:19.135Z,14.40
2022-10-24T00:58:48.495Z,13.60
2022-10-24T01:01:17.867Z,14.50
2022-10-24T01:03:45.806Z,13.50
2022-10-24T01:06:30.219Z,14.80
2022-10-24T01:09:07.812Z,13.50
2022-10-24T01:11:49.051Z,14.70
2022-10-24T01:14:28.371Z,14.60
2022-10-24T01:17:04.829Z,14.20
2022-10-24T01:19:55.986Z,13.40
2022-10-24T01:22:26.713Z,13.70
2022-10-24T01:25:10.884Z,13.30
2022-10-24T01:28:00.595Z,13.30
2022-10-24T01:30:31.903Z,13.80
2022-10-24T01:33:05.318Z,14.50
2022-10-24T01:35:40.375Z,13.40
2022-10-24T01:38:15.510Z,13.10
2022-10-24T01:40:50.801Z,15.00
2022-10-24T01:43:23.179Z,13.10
2022-10-24T01:45:58.173Z,14.90
2022-10-24T01:48:27.906Z,13.30
2022-10-24T01:50:58.228Z,14.80
2022-10-24T01:53:29.164Z,14.40
2022-10-24T01:55:57.881Z,13.30
2022-10-24T01:58:26.135Z,13.30
2022-10-24T02:00:59.874Z,14.20
2022-10-24T02:03:35.108Z,14.60
2022-10-24T02:06:07.768Z,14.60
2022-10-24T02:08:39.016Z,14.60
2022-10-24T02:11:09.009Z,13.40
2022-10-24T02:13:45.065Z,15.30
2022-10-24T02:16:18.567Z,13.40
2022-10-24T02:18:47.862Z,15.00
2022-10-24T02:21:22.226Z,14.80
2022-10-24T02:23:55.800Z,15.20
2022-10-24T02:26:31.021Z,13.40
2022-10-24T02:29:03.816Z,14.40
2022-10-24T02:31:38.457Z,14.20
2022-10-24T02:34:08.500Z,14.80
2022-10-24T02:36:37.899Z,14.30
2022-10-24T02:39:09.139Z,13.30
2022-10-24T02:41:38.719Z,13.50
2022-10-24T02:44:08.737Z,14.50
2022-10-24T02:46:38.924Z,13.90
2022-10-24T02:49:07.544Z,13.60
2022-10-24T02:51:40.016Z,14.40
2022-10-24T02:54:08.487Z,14.90
2022-10-24T02:56:38.125Z,13.10
2022-10-24T02:59:06.057Z,13.10
2022-10-24T03:01:34.264Z,14.00
2022-10-24T03:04:03.551Z,13.80
2022-10-24T03:06:31.483Z,13.00
2022-10-24T03:08:59.351Z,14.20
2022-10-24T03:11:27.262Z,13.80
2022-10-24T03:13:55.145Z,14.90
2022-10-24T03:16:23.035Z,13.00
2022-10-24T03:18:50.954Z,14.30
2022-10-24T03:21:20.274Z,14.90
2022-10-24T03:23:48.170Z,14.20
2022-10-24T03:26:16.134Z,13.30
2022-10-24T03:28:44.070Z,12.90
2022-10-24T03:31:12.240Z,14.00
2022-10-24T03:33:40.149Z,12.80
2022-10-24T03:36:08.483Z,13.00
2022-10-24T03:38:37.756Z,10.80
2022-10-24T03:41:06.187Z,12.70
2022-10-24T03:43:34.079Z,12.60
2022-10-24T03:46:01.984Z,14.10
2022-10-24T03:48:29.879Z,12.60
2022-10-24T03:50:57.809Z,12.50
2022-10-24T03:53:25.683Z,12.50
2022-10-24T03:55:56.971Z,12.40
2022-10-24T03:58:24.940Z,13.60
2022-10-24T04:00:52.894Z,13.80
2022-10-24T04:03:21.015Z,12.60
2022-10-24T04:05:48.899Z,12.60
2022-10-24T04:08:16.784Z,14.10
2022-10-24T04:10:44.850Z,12.70
2022-10-24T04:13:14.280Z,12.70
2022-10-24T04:15:42.540Z,12.70
2022-10-24T04:18:10.476Z,12.70
2022-10-24T04:20:38.406Z,12.70
2022-10-24T04:23:06.295Z,12.90
2022-10-24T04:25:34.314Z,12.90
2022-10-24T04:28:02.255Z,13.80
2022-10-24T04:30:31.571Z,13.40
2022-10-24T04:32:59.735Z,13.70
2022-10-24T04:35:27.655Z,13.00
2022-10-24T04:37:55.681Z,15.00
2022-10-24T04:40:23.587Z,13.00
2022-10-24T04:42:51.481Z,14.20
2022-10-24T04:45:19.583Z,14.80
2022-10-24T04:47:48.797Z,13.00
2022-10-24T04:50:16.750Z,12.90
2022-10-24T04:52:44.614Z,12.90
2022-10-24T04:55:12.480Z,14.50
2022-10-24T04:57:40.542Z,12.90
2022-10-24T05:00:09.684Z,13.00
2022-10-24T05:02:37.697Z,13.00
2022-10-24T05:05:07.824Z,13.30
2022-10-24T05:07:35.898Z,12.90
2022-10-24T05:10:04.074Z,14.20
2022-10-24T05:12:31.967Z,13.00
2022-10-24T05:14:59.893Z,13.70
2022-10-24T05:17:27.764Z,13.00
2022-10-24T05:19:55.675Z,13.00
2022-10-24T05:22:24.967Z,14.40
2022-10-24T05:24:52.956Z,15.00
2022-10-24T05:27:24.616Z,14.30
2022-10-24T05:29:52.707Z,14.30
2022-10-24T05:32:21.988Z,13.10
2022-10-24T05:34:50.218Z,14.60
2022-10-24T05:37:18.530Z,13.00
2022-10-24T05:39:47.935Z,13.00
2022-10-24T05:42:23.500Z,14.30
2022-10-24T05:44:51.633Z,14.70
2022-10-24T05:47:19.541Z,14.40
2022-10-24T05:49:47.374Z,13.00
2022-10-24T05:52:15.283Z,14.20
2022-10-24T05:54:55.028Z,13.00
2022-10-24T05:57:24.842Z,13.10
2022-10-24T05:59:52.682Z,13.10
2022-10-24T06:02:22.106Z,14.60
2022-10-24T06:04:51.020Z,13.20
2022-10-24T06:07:19.567Z,13.20
2022-10-24T06:09:47.463Z,13.60
2022-10-24T06:12:15.527Z,13.60
2022-10-24T06:14:45.625Z,14.80
2022-10-24T06:17:13.554Z,13.50
2022-10-24T06:19:41.986Z,13.60
2022-10-24T06:22:10.309Z,15.30
2022-10-24T06:24:39.775Z,13.50
2022-10-24T06:27:07.858Z,13.50
2022-10-24T06:29:36.671Z,13.50
2022-10-24T06:32:05.986Z,14.30
2022-10-24T06:34:33.837Z,13.40
2022-10-24T06:37:01.740Z,14.60
2022-10-24T06:39:29.637Z,13.50
2022-10-24T06:41:58.053Z,13.50
2022-10-24T06:44:25.959Z,13.50
2022-10-24T06:46:53.918Z,13.50
2022-10-24T06:49:23.187Z,13.50
2022-10-24T06:51:51.065Z,13.60
2022-10-24T06:54:18.973Z,13.60
2022-10-24T06:56:46.881Z,13.70
2022-10-24T06:59:18.231Z,13.70
2022-10-24T07:01:46.916Z,13.70
2022-10-24T07:04:14.831Z,13.80
2022-10-24T07:06:44.177Z,14.90
2022-10-24T07:09:15.291Z,15.30
2022-10-24T07:11:43.754Z,14.00
2022-10-24T07:14:11.795Z,14.00
2022-10-24T07:16:39.751Z,14.90
2022-10-24T07:19:08.019Z,14.20
2022-10-24T07:21:36.215Z,15.00
2022-10-24T07:24:06.332Z,14.90
2022-10-24T07:26:34.295Z,14.40
2022-10-24T07:31:33.093Z,14.50
2022-10-24T07:34:02.737Z,14.60
2022-10-24T07:36:31.531Z,14.60
2022-10-24T07:39:00.680Z,14.60
2022-10-24T07:41:31.573Z,15.70
2022-10-24T07:44:02.054Z,14.70
2022-10-24T07:46:30.026Z,15.80
2022-10-24T07:48:58.070Z,14.70
2022-10-24T07:51:28.003Z,14.80
2022-10-24T07:53:55.937Z,16.00
2022-10-24T07:56:23.873Z,14.90
2022-10-24T07:58:53.191Z,15.00
2022-10-24T08:01:23.377Z,15.00
2022-10-24T08:03:51.399Z,16.30
2022-10-24T08:06:21.202Z,15.20
2022-10-24T08:08:49.264Z,15.30
2022-10-24T08:11:19.248Z,15.20
2022-10-24T08:13:47.122Z,15.20
2022-10-24T08:16:17.735Z,15.30
2022-10-24T08:18:45.616Z,16.10
2022-10-24T08:21:14.901Z,15.70
2022-10-24T08:23:45.118Z,16.20
2022-10-24T08:26:15.343Z,15.90
2022-10-24T08:28:43.862Z,16.00
2022-10-24T08:31:14.810Z,16.60
2022-10-24T08:33:44.814Z,16.60
2022-10-24T08:36:20.289Z,17.10
2022-10-24T08:38:48.278Z,17.10
2022-10-24T08:41:20.530Z,16.70
2022-10-24T08:43:48.408Z,16.30
2022-10-24T08:46:31.888Z,16.30
2022-10-24T08:49:07.956Z,16.40
2022-10-24T08:51:41.735Z,16.50
2022-10-24T08:54:13.944Z,17.00
2022-10-24T08:56:42.306Z,16.90
2022-10-24T08:59:13.614Z,17.00
2022-10-24T09:01:48.250Z,17.10
2022-10-24T09:04:19.962Z,17.00
2022-10-24T09:06:48.895Z,17.10
2022-10-24T09:09:22.467Z,17.30
2022-10-24T09:11:54.132Z,17.20
2022-10-24T09:14:24.451Z,17.40
2022-10-24T09:16:55.489Z,17.40
2022-10-24T09:19:27.214Z,17.50
2022-10-24T09:21:57.603Z,17.60
2022-10-24T09:24:34.790Z,17.70
2022-10-24T09:27:05.346Z,17.80
2022-10-24T09:29:34.827Z,18.00
2022-10-24T09:32:03.451Z,18.10
2022-10-24T09:34:32.777Z,18.10
2022-10-24T09:37:00.680Z,18.30
2022-10-24T09:39:31.875Z,18.40
2022-10-24T09:42:01.967Z,18.50
2022-10-24T09:44:34.166Z,18.60
2022-10-24T09:47:03.674Z,18.70
2022-10-24T09:49:36.658Z,18.70
2022-10-24T09:52:09.468Z,18.70
2022-10-24T09:54:37.742Z,18.70
2022-10-24T09:59:49.030Z,18.60
2022-10-24T10:02:25.972Z,18.70
2022-10-24T10:05:19.316Z,18.50
2022-10-24T10:07:49.867Z,18.40
2022-10-24T10:10:30.731Z,18.30
2022-10-24T10:13:05.436Z,18.30
2022-10-24T10:15:36.110Z,18.20
2022-10-24T10:18:06.742Z,18.20
2022-10-24T10:20:40.358Z,18.10
2022-10-24T10:23:24.768Z,18.10
2022-10-24T10:26:07.468Z,18.00
2022-10-24T10:28:42.234Z,17.90
2022-10-24T10:31:11.659Z,17.90
2022-10-24T10:33:50.995Z,17.80
2022-10-24T10:36:25.228Z,17.70
2022-10-24T10:39:00.655Z,17.90
2022-10-24T10:41:40.406Z,17.70
2022-10-24T10:44:28.717Z,17.70
2022-10-24T10:47:07.264Z,17.60
2022-10-24T10:49:40.068Z,17.60
2022-10-24T10:52:13.934Z,17.70
2022-10-24T10:55:23.987Z,17.70
2022-10-24T10:57:59.414Z,18.00
2022-10-24T11:00:35.998Z,18.10
2022-10-24T11:03:16.794Z,18.20
2022-10-24T11:05:54.479Z,18.30
2022-10-24T11:08:58.206Z,18.30
2022-10-24T11:11:29.707Z,18.50
2022-10-24T11:14:01.771Z,18.50
2022-10-24T11:16:30.535Z,18.50
2022-10-24T11:19:02.802Z,18.30
2022-10-24T11:21:34.307Z,18.40
2022-10-24T11:24:09.909Z,18.20
2022-10-24T11:26:43.222Z,18.20
2022-10-24T11:29:20.971Z,18.20
2022-10-24T11:31:50.935Z,18.20
2022-10-24T11:34:25.078Z,18.20
2022-10-24T11:36:58.006Z,18.30
2022-10-24T11:39:31.159Z,18.30
2022-10-24T11:42:05.795Z,18.30
2022-10-24T11:44:46.608Z,18.40
2022-10-24T11:47:39.105Z,18.50
2022-10-24T11:50:15.668Z,18.20
2022-10-24T11:52:46.319Z,18.30
2022-10-24T11:55:19.667Z,18.10
2022-10-24T11:57:51.944Z,18.00
2022-10-24T12:00:22.257Z,18.00
2022-10-24T12:03:12.227Z,18.10
2022-10-24T12:05:59.897Z,18.20
2022-10-24T12:08:46.795Z,18.40
2022-10-24T12:11:36.466Z,18.50
2022-10-24T12:14:18.988Z,18.70
2022-10-24T12:16:59.409Z,18.70
2022-10-24T12:19:28.598Z,18.90
2022-10-24T12:22:01.729Z,19.00
2022-10-24T12:24:32.791Z,19.20
2022-10-24T12:27:04.124Z,19.00
2022-10-24T12:29:34.014Z,19.10
2022-10-24T12:32:26.093Z,19.10
2022-10-24T12:35:29.937Z,19.30
2022-10-24T12:37:52.071Z,19.30
2022-10-24T12:40:55.748Z,19.30
2022-10-24T12:43:32.894Z,19.40
2022-10-24T12:46:09.388Z,19.40
2022-10-24T12:48:43.303Z,19.50
2022-10-24T12:51:28.698Z,19.50
2022-10-24T12:54:15.605Z,19.40
2022-10-24T12:57:21.631Z,19.30
2022-10-24T12:59:52.541Z,19.20
2022-10-24T13:02:36.554Z,19.10
2022-10-24T13:05:17.703Z,19.10
2022-10-24T13:07:58.648Z,18.90
2022-10-24T13:10:48.223Z,18.90
2022-10-24T13:13:34.196Z,18.50
2022-10-24T13:16:15.838Z,18.60
2022-10-24T13:18:54.350Z,18.80
2022-10-24T13:21:28.824Z,18.70
2022-10-24T13:24:12.546Z,18.50
2022-10-24T13:26:42.454Z,18.40
2022-10-24T13:29:15.763Z,18.30
2022-10-24T13:31:49.486Z,18.20
2022-10-24T13:34:32.462Z,18.20
2022-10-24T13:37:07.112Z,18.10
2022-10-24T13:39:42.464Z,18.00
2022-10-24T13:42:23.906Z,18.00
2022-10-24T13:44:54.264Z,18.00
2022-10-24T13:47:26.476Z,18.00
2022-10-24T13:49:59.233Z,18.00
2022-10-24T13:52:34.038Z,18.00
2022-10-24T13:55:05.985Z,17.90
2022-10-24T13:57:37.453Z,17.90
2022-10-24T14:00:09.442Z,17.80
2022-10-24T14:02:43.034Z,17.90
2022-10-24T14:05:21.322Z,18.00
2022-10-24T14:07:50.327Z,17.90
2022-10-24T14:10:19.746Z,17.90
2022-10-24T14:12:51.772Z,17.80
2022-10-24T14:15:21.719Z,17.80
2022-10-24T14:18:00.137Z,18.00
2022-10-24T14:20:31.241Z,17.70
2022-10-24T14:22:59.359Z,17.70
2022-10-24T14:25:31.155Z,17.60
2022-10-24T14:28:01.111Z,17.60
2022-10-24T14:30:34.437Z,17.60
2022-10-24T14:33:21.742Z,17.60
2022-10-24T14:35:52.371Z,17.60
2022-10-24T14:38:23.818Z,17.60
2022-10-24T14:41:06.201Z,17.70
2022-10-24T14:43:41.547Z,17.50
2022-10-24T14:46:26.252Z,17.50
2022-10-24T14:48:56.697Z,17.40
2022-10-24T14:51:31.156Z,17.30
2022-10-24T14:54:02.335Z,17.30
2022-10-24T14:56:34.200Z,17.30
2022-10-24T14:59:04.734Z,17.50
2022-10-24T15:01:33.144Z,17.10
2022-10-24T15:04:04.078Z,17.10
2022-10-24T15:06:39.271Z,17.10
2022-10-24T15:09:16.440Z,17.10
2022-10-24T15:11:46.186Z,17.00
2022-10-24T15:14:33.377Z,16.90
2022-10-24T15:17:06.283Z,16.90
2022-10-24T15:19:39.508Z,16.90
2022-10-24T15:22:07.515Z,17.50
2022-10-24T15:24:35.370Z,17.50
2022-10-24T15:27:13.854Z,16.60
2022-10-24T15:29:41.840Z,16.80
2022-10-24T15:32:11.305Z,16.60
2022-10-24T15:34:40.826Z,16.50
2022-10-24T15:37:18.648Z,16.50
2022-10-24T15:39:46.591Z,16.50
2022-10-24T15:42:15.582Z,16.50
2022-10-24T15:44:45.503Z,16.80
2022-10-24T15:47:13.383Z,16.40
2022-10-24T15:49:42.564Z,16.30
2022-10-24T15:52:16.103Z,16.70
2022-10-24T15:54:44.438Z,16.60
2022-10-24T15:57:13.987Z,16.10
2022-10-24T15:59:41.874Z,16.10
2022-10-24T16:02:16.794Z,16.00
2022-10-24T16:04:46.238Z,16.00
2022-10-24T16:07:14.085Z,15.90
2022-10-24T16:09:42.100Z,16.30
2022-10-24T16:12:12.352Z,16.40
2022-10-24T16:14:41.290Z,16.60
2022-10-24T16:17:09.152Z,16.20
2022-10-24T16:19:37.052Z,15.80
2022-10-24T16:22:07.524Z,16.60
2022-10-24T16:24:35.400Z,16.40
2022-10-24T16:27:03.237Z,15.80
2022-10-24T16:29:31.868Z,16.00
2022-10-24T16:32:00.988Z,16.20
2022-10-24T16:34:28.908Z,16.20
2022-10-24T16:36:56.827Z,15.90
2022-10-24T16:39:26.025Z,15.40
2022-10-24T16:41:58.339Z,15.90
2022-10-24T16:44:27.158Z,15.30
2022-10-24T16:46:55.232Z,15.50
2022-10-24T16:49:23.593Z,15.30
2022-10-24T16:51:51.442Z,15.40
2022-10-24T16:54:20.570Z,15.30
2022-10-24T16:56:53.673Z,15.20
2022-10-24T16:59:22.171Z,15.10
2022-10-24T17:01:50.415Z,15.40
2022-10-24T17:04:18.473Z,15.40
2022-10-24T17:06:46.305Z,15.60
2022-10-24T17:09:14.235Z,15.10
2022-10-24T17:11:46.244Z,15.30
2022-10-24T17:14:15.929Z,15.10
2022-10-24T17:16:44.843Z,15.50
2022-10-24T17:19:16.041Z,16.20
2022-10-24T17:21:46.782Z,15.10
2022-10-24T17:24:15.298Z,15.00
2022-10-24T17:26:44.588Z,15.00
2022-10-24T17:29:18.728Z,14.90
2022-10-24T17:31:46.826Z,14.90
2022-10-24T17:34:15.010Z,14.80
2022-10-24T17:36:53.706Z,14.70
2022-10-24T17:41:58.862Z,14.70
2022-10-24T17:44:28.654Z,14.60
2022-10-24T17:46:58.190Z,14.50
2022-10-24T17:49:26.600Z,14.50
2022-10-24T17:51:57.472Z,14.50
2022-10-24T17:54:31.244Z,14.40
2022-10-24T17:56:59.399Z,14.40
2022-10-24T17:59:28.778Z,14.90
2022-10-24T18:01:56.855Z,14.30
2022-10-24T18:04:25.112Z,15.70
2022-10-24T18:06:53.103Z,15.00
2022-10-24T18:09:21.091Z,16.00
2022-10-24T18:11:49.222Z,15.40
2022-10-24T18:14:17.523Z,15.90
2022-10-24T18:16:47.163Z,14.00
2022-10-24T18:19:15.305Z,14.00
2022-10-24T18:21:51.999Z,13.90
2022-10-24T18:24:27.867Z,13.90
2022-10-24T18:27:30.654Z,14.00
2022-10-24T18:30:04.218Z,13.90
2022-10-24T18:32:55.612Z,15.00
2022-10-24T18:35:27.446Z,14.00
2022-10-24T18:37:55.983Z,14.00
2022-10-24T18:40:42.025Z,13.80
2022-10-24T18:43:14.077Z,13.70
2022-10-24T18:45:47.503Z,13.80
2022-10-24T18:48:26.800Z,13.80
2022-10-24T18:50:56.804Z,13.70
2022-10-24T18:53:28.064Z,13.70
2022-10-24T18:55:56.324Z,13.60
2022-10-24T18:58:27.414Z,13.50
2022-10-24T19:01:00.370Z,13.50
2022-10-24T19:03:47.562Z,15.30
2022-10-24T19:06:22.742Z,13.40
2022-10-24T19:08:53.359Z,13.40
2022-10-24T19:11:24.156Z,13.40
2022-10-24T19:13:52.524Z,13.40
2022-10-24T19:16:24.121Z,13.50
2022-10-24T19:18:57.591Z,15.10
2022-10-24T19:21:29.198Z,13.50
2022-10-24T19:23:57.266Z,13.50
2022-10-24T19:26:25.164Z,13.60
2022-10-24T19:28:53.167Z,15.30
2022-10-24T19:31:21.350Z,15.50
2022-10-24T19:33:49.314Z,13.30
2022-10-24T19:36:19.395Z,15.20
2022-10-24T19:38:48.884Z,13.60
2022-10-24T19:41:20.165Z,15.40
2022-10-24T19:43:48.152Z,14.80
2022-10-24T19:46:19.745Z,13.60
2022-10-24T19:52:02.004Z,13.60
2022-10-24T19:54:32.089Z,15.40
2022-10-24T19:57:00.430Z,13.60
2022-10-24T19:59:33.848Z,15.40
2022-10-24T20:02:02.039Z,13.60
2022-10-24T20:04:31.322Z,13.60
2022-10-24T20:06:59.317Z,14.90
2022-10-24T20:09:27.235Z,13.40
2022-10-24T20:11:56.457Z,13.40
2022-10-24T20:14:24.582Z,15.00
2022-10-24T20:16:52.463Z,13.40
2022-10-24T20:19:20.838Z,14.80
2022-10-24T20:21:48.688Z,13.40
2022-10-24T20:24:16.560Z,14.70
2022-10-24T20:26:44.535Z,13.30
2022-10-24T20:29:15.122Z,13.70
2022-10-24T20:31:45.679Z,15.20
2022-10-24T20:34:15.000Z,14.80
2022-10-24T20:36:47.065Z,13.20
2022-10-24T20:39:20.689Z,14.90
2022-10-24T20:41:51.756Z,14.10
2022-10-24T20:44:23.417Z,13.20
2022-10-24T20:46:53.100Z,13.00
2022-10-24T20:49:20.966Z,13.40
2022-10-24T20:51:49.005Z,13.00
2022-10-24T20:54:16.827Z,13.40
2022-10-24T20:56:44.689Z,12.90
2022-10-24T20:59:14.094Z,14.50
2022-10-24T21:01:43.642Z,13.30
2022-10-24T21:04:12.847Z,14.10
2022-10-24T21:06:42.487Z,12.90
2022-10-24T21:09:10.346Z,12.80
2022-10-24T21:11:38.676Z,13.70
2022-10-24T21:14:08.839Z,13.80
2022-10-24T21:16:36.982Z,12.80
2022-10-24T21:19:06.479Z,13.50
2022-10-24T21:21:34.344Z,12.70
2022-10-24T21:24:05.777Z,14.70
2022-10-24T21:26:38.047Z,12.60
2022-10-24T21:29:31.721Z,14.00
2022-10-24T21:31:54.575Z,13.00
2022-10-24T21:34:24.035Z,12.60
2022-10-24T21:36:51.914Z,12.60
2022-10-24T21:39:19.791Z,12.50
2022-10-24T21:41:47.616Z,12.50
2022-10-24T21:44:15.685Z,12.50
2022-10-24T21:46:43.876Z,12.40
2022-10-24T21:49:12.114Z,13.40
2022-10-24T21:51:42.741Z,13.70
2022-10-24T21:54:18.081Z,14.50
2022-10-24T21:56:46.187Z,12.40
2022-10-24T21:59:15.794Z,12.50
2022-10-24T22:01:46.098Z,12.50
2022-10-24T22:04:14.660Z,12.50
2022-10-24T22:06:44.639Z,12.60
2022-10-24T22:09:15.784Z,14.60
2022-10-24T22:11:44.101Z,12.70
2022-10-24T22:14:14.054Z,12.80
2022-10-24T22:16:42.992Z,12.90
2022-10-24T22:19:12.550Z,12.90
2022-10-24T22:21:44.370Z,13.00
2022-10-24T22:24:14.360Z,13.10
2022-10-24T22:26:42.917Z,14.30
2022-10-24T22:29:13.764Z,14.10
2022-10-24T22:31:42.142Z,14.30
2022-10-24T22:34:12.118Z,13.20
2022-10-24T22:36:50.309Z,14.20
2022-10-24T22:39:20.557Z,13.10
2022-10-24T22:41:49.538Z,13.10
2022-10-24T22:44:20.386Z,13.10
2022-10-24T22:47:03.411Z,13.10
2022-10-24T22:49:39.895Z,13.00
2022-10-24T22:52:11.543Z,14.70
2022-10-24T22:54:40.388Z,14.00
2022-10-24T22:57:09.077Z,13.00
2022-10-24T22:59:37.595Z,12.90
2022-10-24T23:02:16.802Z,12.90
2022-10-24T23:04:53.752Z,12.90
2022-10-24T23:07:27.753Z,12.90
2022-10-24T23:09:55.953Z,12.90
2022-10-24T23:12:24.350Z,14.40
2022-10-24T23:14:53.268Z,12.80
2022-10-24T23:17:24.903Z,12.80
2022-10-24T23:19:53.906Z,12.80
2022-10-24T23:22:26.434Z,12.80
2022-10-24T23:24:56.305Z,12.70
2022-10-24T23:27:36.158Z,12.70
2022-10-24T23:30:06.600Z,13.30
2022-10-24T23:32:38.305Z,12.70
2022-10-24T23:35:07.565Z,12.70
2022-10-24T23:37:38.856Z,12.70
2022-10-24T23:40:22.199Z,12.70
2022-10-24T23:42:52.221Z,12.70
2022-10-24T23:45:21.446Z,12.70
2022-10-24T23:47:59.103Z,12.70
2022-10-24T23:50:35.012Z,12.70
2022-10-24T23:53:19.274Z,12.70
2022-10-24T23:55:47.841Z,12.70
2022-10-24T23:58:15.791Z,12.70
